sensor_id;sensor_type;location;lat;lon;timestamp;P1;durP1;ratioP1;P2;durP2;ratioP2
12222;SDS011;6174;49.058;8.524;2022-11-15T05:00:33;3.83;;;3.43;;
12222;SDS011;6174;49.058;8.524;2022-11-15T05:03:01;3.53;;;3.23;;
12222;SDS011;6174;49.058;8.524;2022-11-15T05:05:45;5.30;;;3.40;;
12222;SDS011;6174;49.058;8.524;2022-11-15T05:08:12;7.57;;;5.23;;
12222;SDS011;6174;49.058;8.524;2022-11-15T05:10:39;7.97;;;5.27;;
12222;SDS011;6174;49.058;8.524;2022-11-15T05:13:05;5.50;;;4.67;;
12222;SDS011;6174;49.058;8.524;2022-11-15T05:15:34;5.50;;;4.33;;
12222;SDS011;6174;49.058;8.524;2022-11-15T05:18:00;7.13;;;4.90;;
12222;SDS011;6174;49.058;8.524;2022-11-15T05:20:27;4.20;;;3.80;;
12222;SDS011;6174;49.058;8.524;2022-11-15T05:22:54;4.03;;;3.40;;
12222;SDS011;6174;49.058;8.524;2022-11-15T05:25:21;3.80;;;3.40;;
12222;SDS011;6174;49.058;8.524;2022-11-15T05:27:48;4.83;;;4.00;;
12222;SDS011;6174;49.058;8.524;2022-11-15T05:30:15;4.00;;;3.70;;
12222;SDS011;6174;49.058;8.524;2022-11-15T05:32:43;3.53;;;3.23;;
12222;SDS011;6174;49.058;8.524;2022-11-15T05:35:12;4.57;;;3.27;;
12222;SDS011;6174;49.058;8.524;2022-11-15T05:37:43;3.57;;;3.20;;
12222;SDS011;6174;49.058;8.524;2022-11-15T05:40:10;3.67;;;3.37;;
12222;SDS011;6174;49.058;8.524;2022-11-15T05:42:37;3.70;;;3.40;;
12222;SDS011;6174;49.058;8.524;2022-11-15T05:45:04;3.67;;;3.20;;
12222;SDS011;6174;49.058;8.524;2022-11-15T05:47:34;5.23;;;3.80;;
12222;SDS011;6174;49.058;8.524;2022-11-15T05:50:04;5.37;;;4.83;;
12222;SDS011;6174;49.058;8.524;2022-11-15T05:52:33;5.00;;;4.50;;
12222;SDS011;6174;49.058;8.524;2022-11-15T05:55:02;4.67;;;4.10;;
12222;SDS011;6174;49.058;8.524;2022-11-15T05:57:31;4.23;;;3.83;;
12222;SDS011;6174;49.058;8.524;2022-11-15T05:59:58;4.53;;;3.60;;
12222;SDS011;6174;49.058;8.524;2022-11-15T06:02:25;4.50;;;4.10;;
12222;SDS011;6174;49.058;8.524;2022-11-15T06:04:52;4.17;;;3.77;;
12222;SDS011;6174;49.058;8.524;2022-11-15T06:07:20;8.13;;;6.13;;
12222;SDS011;6174;49.058;8.524;2022-11-15T06:09:47;3.77;;;3.40;;
12222;SDS011;6174;49.058;8.524;2022-11-15T06:12:13;4.53;;;3.43;;
12222;SDS011;6174;49.058;8.524;2022-11-15T06:14:40;4.10;;;3.77;;
12222;SDS011;6174;49.058;8.524;2022-11-15T06:17:07;5.67;;;3.50;;
12222;SDS011;6174;49.058;8.524;2022-11-15T06:19:34;5.60;;;3.57;;
12222;SDS011;6174;49.058;8.524;2022-11-15T06:22:01;4.37;;;3.47;;
12222;SDS011;6174;49.058;8.524;2022-11-15T06:24:29;4.53;;;3.47;;
12222;SDS011;6174;49.058;8.524;2022-11-15T06:26:56;4.53;;;3.60;;
12222;SDS011;6174;49.058;8.524;2022-11-15T06:29:24;3.77;;;3.47;;
12222;SDS011;6174;49.058;8.524;2022-11-15T06:31:50;4.43;;;3.23;;
12222;SDS011;6174;49.058;8.524;2022-11-15T06:34:17;4.10;;;3.47;;
12222;SDS011;6174;49.058;8.524;2022-11-15T06:36:44;5.67;;;4.10;;
12222;SDS011;6174;49.058;8.524;2022-11-15T06:39:11;4.80;;;3.70;;
12222;SDS011;6174;49.058;8.524;2022-11-15T06:41:39;4.63;;;3.30;;
12222;SDS011;6174;49.058;8.524;2022-11-15T06:44:06;4.80;;;3.67;;
12222;SDS011;6174;49.058;8.524;2022-11-15T06:46:32;8.77;;;4.50;;
12222;SDS011;6174;49.058;8.524;2022-11-15T06:48:59;4.87;;;4.27;;
12222;SDS011;6174;49.058;8.524;2022-11-15T06:51:26;4.87;;;4.10;;
12222;SDS011;6174;49.058;8.524;2022-11-15T06:53:53;5.27;;;4.40;;
12222;SDS011;6174;49.058;8.524;2022-11-15T06:56:20;4.43;;;4.00;;
12222;SDS011;6174;49.058;8.524;2022-11-15T06:58:48;7.80;;;3.93;;
12222;SDS011;6174;49.058;8.524;2022-11-15T07:01:15;4.50;;;3.53;;
12222;SDS011;6174;49.058;8.524;2022-11-15T07:03:42;4.33;;;3.93;;
12222;SDS011;6174;49.058;8.524;2022-11-15T07:06:10;4.33;;;3.20;;
12222;SDS011;6174;49.058;8.524;2022-11-15T07:08:37;5.30;;;3.47;;
12222;SDS011;6174;49.058;8.524;2022-11-15T07:11:04;4.40;;;4.00;;
12222;SDS011;6174;49.058;8.524;2022-11-15T07:13:32;6.37;;;4.50;;
12222;SDS011;6174;49.058;8.524;2022-11-15T07:16:02;4.53;;;4.10;;
12222;SDS011;6174;49.058;8.524;2022-11-15T07:18:30;5.67;;;4.40;;
12222;SDS011;6174;49.058;8.524;2022-11-15T07:20:59;4.50;;;4.20;;
12222;SDS011;6174;49.058;8.524;2022-11-15T07:23:27;4.47;;;4.07;;
12222;SDS011;6174;49.058;8.524;2022-11-15T07:25:55;4.33;;;3.83;;
12222;SDS011;6174;49.058;8.524;2022-11-15T07:28:23;5.53;;;4.07;;
12222;SDS011;6174;49.058;8.524;2022-11-15T07:30:49;4.50;;;4.10;;
12222;SDS011;6174;49.058;8.524;2022-11-15T07:33:18;5.93;;;3.93;;
12222;SDS011;6174;49.058;8.524;2022-11-15T07:35:46;5.23;;;3.37;;
12222;SDS011;6174;49.058;8.524;2022-11-15T07:38:23;4.37;;;3.97;;
12222;SDS011;6174;49.058;8.524;2022-11-15T07:40:55;4.60;;;4.20;;
12222;SDS011;6174;49.058;8.524;2022-11-15T07:43:22;5.93;;;5.33;;
12222;SDS011;6174;49.058;8.524;2022-11-15T07:45:49;5.60;;;5.10;;
12222;SDS011;6174;49.058;8.524;2022-11-15T07:48:17;7.70;;;5.33;;
12222;SDS011;6174;49.058;8.524;2022-11-15T07:50:44;4.30;;;3.90;;
12222;SDS011;6174;49.058;8.524;2022-11-15T07:53:10;5.90;;;4.43;;
12222;SDS011;6174;49.058;8.524;2022-11-15T07:55:39;4.40;;;4.00;;
12222;SDS011;6174;49.058;8.524;2022-11-15T07:58:07;4.67;;;4.07;;
12222;SDS011;6174;49.058;8.524;2022-11-15T08:00:35;6.47;;;3.87;;
12222;SDS011;6174;49.058;8.524;2022-11-15T08:03:03;4.30;;;3.90;;
12222;SDS011;6174;49.058;8.524;2022-11-15T08:05:32;4.37;;;3.87;;
12222;SDS011;6174;49.058;8.524;2022-11-15T08:07:59;4.43;;;4.03;;
12222;SDS011;6174;49.058;8.524;2022-11-15T08:10:26;5.70;;;4.40;;
12222;SDS011;6174;49.058;8.524;2022-11-15T08:12:57;5.83;;;4.27;;
12222;SDS011;6174;49.058;8.524;2022-11-15T08:15:25;7.70;;;5.03;;
12222;SDS011;6174;49.058;8.524;2022-11-15T08:17:55;5.43;;;4.07;;
12222;SDS011;6174;49.058;8.524;2022-11-15T08:20:22;5.43;;;4.00;;
12222;SDS011;6174;49.058;8.524;2022-11-15T08:22:51;5.23;;;4.00;;
12222;SDS011;6174;49.058;8.524;2022-11-15T08:25:18;6.60;;;4.33;;
12222;SDS011;6174;49.058;8.524;2022-11-15T08:27:45;5.70;;;3.40;;
12222;SDS011;6174;49.058;8.524;2022-11-15T08:30:12;7.23;;;4.60;;
12222;SDS011;6174;49.058;8.524;2022-11-15T08:32:41;4.57;;;3.97;;
12222;SDS011;6174;49.058;8.524;2022-11-15T08:35:07;4.17;;;3.37;;
12222;SDS011;6174;49.058;8.524;2022-11-15T08:37:34;4.97;;;3.80;;
12222;SDS011;6174;49.058;8.524;2022-11-15T08:40:03;3.93;;;3.50;;
12222;SDS011;6174;49.058;8.524;2022-11-15T08:42:30;3.80;;;3.37;;
12222;SDS011;6174;49.058;8.524;2022-11-15T08:44:57;3.77;;;3.47;;
12222;SDS011;6174;49.058;8.524;2022-11-15T08:47:24;3.67;;;3.20;;
12222;SDS011;6174;49.058;8.524;2022-11-15T08:49:51;3.50;;;3.20;;
12222;SDS011;6174;49.058;8.524;2022-11-15T08:52:18;4.10;;;3.63;;
12222;SDS011;6174;49.058;8.524;2022-11-15T08:54:45;5.00;;;4.00;;
12222;SDS011;6174;49.058;8.524;2022-11-15T08:57:13;4.63;;;3.80;;
12222;SDS011;6174;49.058;8.524;2022-11-15T08:59:40;4.27;;;3.87;;
12222;SDS011;6174;49.058;8.524;2022-11-15T09:02:10;5.27;;;3.53;;
12222;SDS011;6174;49.058;8.524;2022-11-15T09:04:39;4.93;;;3.90;;
12222;SDS011;6174;49.058;8.524;2022-11-15T09:07:06;3.83;;;3.53;;
12222;SDS011;6174;49.058;8.524;2022-11-15T09:09:33;4.37;;;3.93;;
12222;SDS011;6174;49.058;8.524;2022-11-15T09:11:59;4.30;;;3.90;;
12222;SDS011;6174;49.058;8.524;2022-11-15T09:14:27;4.87;;;4.27;;
12222;SDS011;6174;49.058;8.524;2022-11-15T09:16:54;4.83;;;3.90;;
12222;SDS011;6174;49.058;8.524;2022-11-15T09:19:21;4.90;;;4.07;;
12222;SDS011;6174;49.058;8.524;2022-11-15T09:21:48;4.90;;;4.40;;
12222;SDS011;6174;49.058;8.524;2022-11-15T09:24:15;6.17;;;3.67;;
12222;SDS011;6174;49.058;8.524;2022-11-15T09:26:42;4.13;;;3.73;;
12222;SDS011;6174;49.058;8.524;2022-11-15T09:29:09;6.90;;;3.80;;
12222;SDS011;6174;49.058;8.524;2022-11-15T09:31:37;3.80;;;3.50;;
12222;SDS011;6174;49.058;8.524;2022-11-15T09:34:04;3.93;;;3.53;;
12222;SDS011;6174;49.058;8.524;2022-11-15T09:36:31;7.13;;;3.50;;
12222;SDS011;6174;49.058;8.524;2022-11-15T09:38:57;5.33;;;3.60;;
12222;SDS011;6174;49.058;8.524;2022-11-15T09:41:32;4.30;;;3.90;;
12222;SDS011;6174;49.058;8.524;2022-11-15T09:44:18;6.23;;;3.70;;
12222;SDS011;6174;49.058;8.524;2022-11-15T09:47:03;4.80;;;3.60;;
12222;SDS011;6174;49.058;8.524;2022-11-15T09:49:41;5.10;;;3.93;;
12222;SDS011;6174;49.058;8.524;2022-11-15T09:52:08;5.83;;;3.93;;
12222;SDS011;6174;49.058;8.524;2022-11-15T09:54:38;4.10;;;3.80;;
12222;SDS011;6174;49.058;8.524;2022-11-15T09:57:09;4.93;;;4.40;;
12222;SDS011;6174;49.058;8.524;2022-11-15T09:59:52;7.03;;;5.90;;
12222;SDS011;6174;49.058;8.524;2022-11-15T10:02:41;5.73;;;5.23;;
12222;SDS011;6174;49.058;8.524;2022-11-15T10:05:19;6.60;;;5.90;;
12222;SDS011;6174;49.058;8.524;2022-11-15T10:07:50;5.87;;;4.50;;
12222;SDS011;6174;49.058;8.524;2022-11-15T10:10:22;5.43;;;4.93;;
12222;SDS011;6174;49.058;8.524;2022-11-15T10:12:53;4.50;;;4.10;;
12222;SDS011;6174;49.058;8.524;2022-11-15T10:15:20;4.30;;;3.90;;
12222;SDS011;6174;49.058;8.524;2022-11-15T10:17:58;4.40;;;4.00;;
12222;SDS011;6174;49.058;8.524;2022-11-15T10:20:34;4.87;;;4.03;;
12222;SDS011;6174;49.058;8.524;2022-11-15T10:23:11;4.60;;;4.13;;
12222;SDS011;6174;49.058;8.524;2022-11-15T10:25:40;6.73;;;4.30;;
12222;SDS011;6174;49.058;8.524;2022-11-15T10:28:09;4.53;;;3.97;;
12222;SDS011;6174;49.058;8.524;2022-11-15T10:30:41;4.60;;;4.30;;
12222;SDS011;6174;49.058;8.524;2022-11-15T10:33:16;4.50;;;4.10;;
12222;SDS011;6174;49.058;8.524;2022-11-15T10:36:14;4.63;;;4.23;;
12222;SDS011;6174;49.058;8.524;2022-11-15T10:38:52;5.70;;;4.07;;
12222;SDS011;6174;49.058;8.524;2022-11-15T10:41:21;4.40;;;4.00;;
12222;SDS011;6174;49.058;8.524;2022-11-15T10:44:02;7.33;;;4.23;;
12222;SDS011;6174;49.058;8.524;2022-11-15T10:46:45;5.73;;;4.43;;
12222;SDS011;6174;49.058;8.524;2022-11-15T10:49:15;7.50;;;4.90;;
12222;SDS011;6174;49.058;8.524;2022-11-15T10:51:45;5.57;;;5.07;;
12222;SDS011;6174;49.058;8.524;2022-11-15T10:54:14;5.70;;;4.90;;
12222;SDS011;6174;49.058;8.524;2022-11-15T10:56:56;6.80;;;4.30;;
12222;SDS011;6174;49.058;8.524;2022-11-15T10:59:26;5.30;;;4.80;;
12222;SDS011;6174;49.058;8.524;2022-11-15T11:01:55;5.13;;;4.40;;
12222;SDS011;6174;49.058;8.524;2022-11-15T11:04:23;5.20;;;4.70;;
12222;SDS011;6174;49.058;8.524;2022-11-15T11:06:50;4.93;;;4.40;;
12222;SDS011;6174;49.058;8.524;2022-11-15T11:09:22;5.10;;;4.60;;
12222;SDS011;6174;49.058;8.524;2022-11-15T11:11:54;6.23;;;5.27;;
12222;SDS011;6174;49.058;8.524;2022-11-15T11:14:22;6.13;;;4.90;;
12222;SDS011;6174;49.058;8.524;2022-11-15T11:16:52;5.30;;;4.80;;
12222;SDS011;6174;49.058;8.524;2022-11-15T11:19:52;6.00;;;5.40;;
12222;SDS011;6174;49.058;8.524;2022-11-15T11:22:28;6.23;;;5.63;;
12222;SDS011;6174;49.058;8.524;2022-11-15T11:25:08;9.07;;;5.37;;
12222;SDS011;6174;49.058;8.524;2022-11-15T11:27:55;9.47;;;5.97;;
12222;SDS011;6174;49.058;8.524;2022-11-15T11:30:32;6.53;;;5.43;;
12222;SDS011;6174;49.058;8.524;2022-11-15T11:33:10;8.47;;;5.83;;
12222;SDS011;6174;49.058;8.524;2022-11-15T11:35:46;5.17;;;4.67;;
12222;SDS011;6174;49.058;8.524;2022-11-15T11:38:22;6.37;;;4.80;;
12222;SDS011;6174;49.058;8.524;2022-11-15T11:41:00;5.53;;;4.07;;
12222;SDS011;6174;49.058;8.524;2022-11-15T11:43:36;9.20;;;5.00;;
12222;SDS011;6174;49.058;8.524;2022-11-15T11:46:14;5.43;;;4.93;;
12222;SDS011;6174;49.058;8.524;2022-11-15T11:48:56;8.23;;;4.97;;
12222;SDS011;6174;49.058;8.524;2022-11-15T11:51:28;6.90;;;3.90;;
12222;SDS011;6174;49.058;8.524;2022-11-15T11:54:03;6.07;;;4.00;;
12222;SDS011;6174;49.058;8.524;2022-11-15T11:56:39;4.53;;;4.10;;
12222;SDS011;6174;49.058;8.524;2022-11-15T11:59:12;5.20;;;3.90;;
12222;SDS011;6174;49.058;8.524;2022-11-15T12:01:45;3.73;;;3.33;;
12222;SDS011;6174;49.058;8.524;2022-11-15T12:04:13;3.60;;;2.90;;
12222;SDS011;6174;49.058;8.524;2022-11-15T12:06:48;5.07;;;3.20;;
12222;SDS011;6174;49.058;8.524;2022-11-15T12:09:20;3.63;;;3.33;;
12222;SDS011;6174;49.058;8.524;2022-11-15T12:11:54;3.37;;;3.03;;
12222;SDS011;6174;49.058;8.524;2022-11-15T12:14:32;3.30;;;2.70;;
12222;SDS011;6174;49.058;8.524;2022-11-15T12:17:02;3.30;;;3.00;;
12222;SDS011;6174;49.058;8.524;2022-11-15T12:19:29;3.87;;;3.20;;
12222;SDS011;6174;49.058;8.524;2022-11-15T12:21:59;3.70;;;3.07;;
12222;SDS011;6174;49.058;8.524;2022-11-15T12:24:32;3.33;;;3.03;;
12222;SDS011;6174;49.058;8.524;2022-11-15T12:27:02;6.30;;;3.60;;
12222;SDS011;6174;49.058;8.524;2022-11-15T12:29:33;4.27;;;3.73;;
12222;SDS011;6174;49.058;8.524;2022-11-15T12:32:04;5.40;;;3.60;;
12222;SDS011;6174;49.058;8.524;2022-11-15T12:34:44;3.70;;;3.40;;
12222;SDS011;6174;49.058;8.524;2022-11-15T12:37:45;4.00;;;3.60;;
12222;SDS011;6174;49.058;8.524;2022-11-15T12:40:24;4.33;;;2.93;;
12222;SDS011;6174;49.058;8.524;2022-11-15T12:42:57;3.27;;;2.77;;
12222;SDS011;6174;49.058;8.524;2022-11-15T12:45:29;3.73;;;3.33;;
12222;SDS011;6174;49.058;8.524;2022-11-15T12:48:44;4.43;;;2.40;;
12222;SDS011;6174;49.058;8.524;2022-11-15T12:54:52;3.30;;;2.43;;
12222;SDS011;6174;49.058;8.524;2022-11-15T12:57:28;3.47;;;2.60;;
12222;SDS011;6174;49.058;8.524;2022-11-15T13:00:00;4.17;;;2.60;;
12222;SDS011;6174;49.058;8.524;2022-11-15T13:02:32;2.97;;;2.57;;
12222;SDS011;6174;49.058;8.524;2022-11-15T13:08:35;5.30;;;3.33;;
12222;SDS011;6174;49.058;8.524;2022-11-15T13:11:45;4.70;;;3.40;;
12222;SDS011;6174;49.058;8.524;2022-11-15T13:20:02;5.37;;;3.63;;
12222;SDS011;6174;49.058;8.524;2022-11-15T13:22:45;6.73;;;3.97;;
12222;SDS011;6174;49.058;8.524;2022-11-15T13:25:34;3.30;;;2.97;;
12222;SDS011;6174;49.058;8.524;2022-11-15T13:28:31;6.87;;;3.60;;
12222;SDS011;6174;49.058;8.524;2022-11-15T13:31:00;3.97;;;3.07;;
12222;SDS011;6174;49.058;8.524;2022-11-15T13:33:33;4.10;;;2.87;;
12222;SDS011;6174;49.058;8.524;2022-11-15T13:36:02;3.27;;;2.97;;
12222;SDS011;6174;49.058;8.524;2022-11-15T13:38:32;3.93;;;3.53;;
12222;SDS011;6174;49.058;8.524;2022-11-15T13:41:10;3.97;;;3.30;;
12222;SDS011;6174;49.058;8.524;2022-11-15T13:43:44;3.60;;;2.87;;
12222;SDS011;6174;49.058;8.524;2022-11-15T13:46:12;3.50;;;2.57;;
12222;SDS011;6174;49.058;8.524;2022-11-15T13:48:43;3.47;;;2.50;;
12222;SDS011;6174;49.058;8.524;2022-11-15T13:51:14;4.50;;;3.10;;
12222;SDS011;6174;49.058;8.524;2022-11-15T13:53:45;4.73;;;3.23;;
12222;SDS011;6174;49.058;8.524;2022-11-15T13:56:14;3.60;;;3.30;;
12222;SDS011;6174;49.058;8.524;2022-11-15T13:58:42;4.40;;;4.00;;
12222;SDS011;6174;49.058;8.524;2022-11-15T14:01:13;5.73;;;4.33;;
12222;SDS011;6174;49.058;8.524;2022-11-15T14:03:46;6.10;;;3.73;;
12222;SDS011;6174;49.058;8.524;2022-11-15T14:06:16;4.00;;;3.30;;
12222;SDS011;6174;49.058;8.524;2022-11-15T14:08:57;3.37;;;3.07;;
12222;SDS011;6174;49.058;8.524;2022-11-15T14:11:27;2.93;;;2.70;;
12222;SDS011;6174;49.058;8.524;2022-11-15T14:13:59;3.67;;;2.97;;
12222;SDS011;6174;49.058;8.524;2022-11-15T14:16:40;3.10;;;2.50;;
12222;SDS011;6174;49.058;8.524;2022-11-15T14:19:09;4.00;;;3.20;;
12222;SDS011;6174;49.058;8.524;2022-11-15T14:21:38;3.50;;;2.70;;
12222;SDS011;6174;49.058;8.524;2022-11-15T14:24:35;3.20;;;2.80;;
12222;SDS011;6174;49.058;8.524;2022-11-15T14:27:15;4.97;;;2.70;;
12222;SDS011;6174;49.058;8.524;2022-11-15T14:29:43;3.63;;;2.77;;
12222;SDS011;6174;49.058;8.524;2022-11-15T14:32:13;4.00;;;2.90;;
12222;SDS011;6174;49.058;8.524;2022-11-15T14:34:41;3.60;;;2.63;;
12222;SDS011;6174;49.058;8.524;2022-11-15T14:37:11;4.13;;;2.87;;
12222;SDS011;6174;49.058;8.524;2022-11-15T14:39:48;4.90;;;3.10;;
12222;SDS011;6174;49.058;8.524;2022-11-15T14:42:15;5.93;;;2.73;;
12222;SDS011;6174;49.058;8.524;2022-11-15T14:44:44;4.33;;;3.20;;
12222;SDS011;6174;49.058;8.524;2022-11-15T14:47:17;6.53;;;3.03;;
12222;SDS011;6174;49.058;8.524;2022-11-15T14:49:45;4.57;;;3.00;;
12222;SDS011;6174;49.058;8.524;2022-11-15T14:52:25;5.87;;;3.17;;
12222;SDS011;6174;49.058;8.524;2022-11-15T14:54:56;4.10;;;3.20;;
12222;SDS011;6174;49.058;8.524;2022-11-15T14:57:26;4.33;;;3.23;;
12222;SDS011;6174;49.058;8.524;2022-11-15T14:59:53;3.43;;;2.93;;
12222;SDS011;6174;49.058;8.524;2022-11-15T15:02:22;4.13;;;3.13;;
12222;SDS011;6174;49.058;8.524;2022-11-15T15:04:58;3.50;;;3.17;;
12222;SDS011;6174;49.058;8.524;2022-11-15T15:07:38;6.47;;;4.47;;
12222;SDS011;6174;49.058;8.524;2022-11-15T15:10:05;4.17;;;3.77;;
12222;SDS011;6174;49.058;8.524;2022-11-15T15:12:32;5.10;;;4.30;;
12222;SDS011;6174;49.058;8.524;2022-11-15T15:14:59;4.10;;;3.10;;
12222;SDS011;6174;49.058;8.524;2022-11-15T15:17:27;3.80;;;3.50;;
12222;SDS011;6174;49.058;8.524;2022-11-15T15:19:54;4.47;;;2.60;;
12222;SDS011;6174;49.058;8.524;2022-11-15T15:22:21;3.27;;;2.50;;
12222;SDS011;6174;49.058;8.524;2022-11-15T15:24:50;3.67;;;2.60;;
12222;SDS011;6174;49.058;8.524;2022-11-15T15:27:17;4.50;;;3.37;;
12222;SDS011;6174;49.058;8.524;2022-11-15T15:29:47;3.47;;;2.90;;
12222;SDS011;6174;49.058;8.524;2022-11-15T15:32:14;4.20;;;2.80;;
12222;SDS011;6174;49.058;8.524;2022-11-15T15:34:42;3.53;;;3.00;;
12222;SDS011;6174;49.058;8.524;2022-11-15T15:37:19;4.50;;;3.10;;
12222;SDS011;6174;49.058;8.524;2022-11-15T15:39:49;3.70;;;2.80;;
12222;SDS011;6174;49.058;8.524;2022-11-15T15:42:16;2.83;;;2.63;;
12222;SDS011;6174;49.058;8.524;2022-11-15T15:44:48;3.97;;;3.10;;
12222;SDS011;6174;49.058;8.524;2022-11-15T15:47:16;3.77;;;3.13;;
12222;SDS011;6174;49.058;8.524;2022-11-15T15:49:47;3.57;;;2.80;;
12222;SDS011;6174;49.058;8.524;2022-11-15T15:52:14;3.97;;;3.20;;
12222;SDS011;6174;49.058;8.524;2022-11-15T15:54:41;3.87;;;3.33;;
12222;SDS011;6174;49.058;8.524;2022-11-15T15:57:12;2.80;;;2.60;;
12222;SDS011;6174;49.058;8.524;2022-11-15T15:59:39;5.53;;;2.90;;
12222;SDS011;6174;49.058;8.524;2022-11-15T16:02:08;4.17;;;2.97;;
12222;SDS011;6174;49.058;8.524;2022-11-15T16:04:37;7.60;;;5.10;;
12222;SDS011;6174;49.058;8.524;2022-11-15T16:07:12;8.27;;;6.63;;
12222;SDS011;6174;49.058;8.524;2022-11-15T16:09:43;8.50;;;7.03;;
12222;SDS011;6174;49.058;8.524;2022-11-15T16:12:28;8.67;;;5.80;;
12222;SDS011;6174;49.058;8.524;2022-11-15T16:14:56;4.30;;;3.80;;
12222;SDS011;6174;49.058;8.524;2022-11-15T16:17:24;4.17;;;3.10;;
12222;SDS011;6174;49.058;8.524;2022-11-15T16:19:54;3.83;;;3.17;;
12222;SDS011;6174;49.058;8.524;2022-11-15T16:22:22;4.10;;;2.90;;
12222;SDS011;6174;49.058;8.524;2022-11-15T16:24:49;5.43;;;3.53;;
12222;SDS011;6174;49.058;8.524;2022-11-15T16:27:16;6.87;;;3.67;;
12222;SDS011;6174;49.058;8.524;2022-11-15T16:29:45;4.37;;;3.97;;
12222;SDS011;6174;49.058;8.524;2022-11-15T16:32:13;6.07;;;3.40;;
12222;SDS011;6174;49.058;8.524;2022-11-15T16:34:40;5.10;;;3.73;;
12222;SDS011;6174;49.058;8.524;2022-11-15T16:37:08;3.70;;;3.40;;
12222;SDS011;6174;49.058;8.524;2022-11-15T16:39:46;3.57;;;2.87;;
12222;SDS011;6174;49.058;8.524;2022-11-15T16:42:12;4.93;;;3.87;;
12222;SDS011;6174;49.058;8.524;2022-11-15T16:44:39;3.53;;;3.23;;
12222;SDS011;6174;49.058;8.524;2022-11-15T16:47:09;3.47;;;3.17;;
12222;SDS011;6174;49.058;8.524;2022-11-15T16:49:42;4.63;;;3.40;;
12222;SDS011;6174;49.058;8.524;2022-11-15T16:52:09;4.53;;;3.63;;
12222;SDS011;6174;49.058;8.524;2022-11-15T16:54:36;4.20;;;3.70;;
12222;SDS011;6174;49.058;8.524;2022-11-15T16:57:04;4.53;;;4.13;;
12222;SDS011;6174;49.058;8.524;2022-11-15T16:59:31;5.73;;;5.00;;
12222;SDS011;6174;49.058;8.524;2022-11-15T17:01:57;5.10;;;4.60;;
12222;SDS011;6174;49.058;8.524;2022-11-15T17:04:24;4.83;;;4.33;;
12222;SDS011;6174;49.058;8.524;2022-11-15T17:06:56;4.90;;;4.40;;
12222;SDS011;6174;49.058;8.524;2022-11-15T17:09:26;4.63;;;4.20;;
12222;SDS011;6174;49.058;8.524;2022-11-15T17:11:53;5.40;;;4.90;;
12222;SDS011;6174;49.058;8.524;2022-11-15T17:14:21;5.47;;;3.90;;
12222;SDS011;6174;49.058;8.524;2022-11-15T17:16:47;5.40;;;4.07;;
12222;SDS011;6174;49.058;8.524;2022-11-15T17:19:16;3.53;;;3.23;;
12222;SDS011;6174;49.058;8.524;2022-11-15T17:21:44;4.07;;;3.07;;
12222;SDS011;6174;49.058;8.524;2022-11-15T17:24:13;5.20;;;3.50;;
12222;SDS011;6174;49.058;8.524;2022-11-15T17:26:41;5.50;;;4.00;;
12222;SDS011;6174;49.058;8.524;2022-11-15T17:29:08;5.73;;;4.00;;
12222;SDS011;6174;49.058;8.524;2022-11-15T17:31:39;7.20;;;5.87;;
12222;SDS011;6174;49.058;8.524;2022-11-15T17:34:09;6.83;;;6.27;;
12222;SDS011;6174;49.058;8.524;2022-11-15T17:36:36;7.60;;;4.27;;
12222;SDS011;6174;49.058;8.524;2022-11-15T17:39:03;5.93;;;3.93;;
12222;SDS011;6174;49.058;8.524;2022-11-15T17:41:30;5.37;;;3.77;;
12222;SDS011;6174;49.058;8.524;2022-11-15T17:43:58;4.17;;;3.70;;
12222;SDS011;6174;49.058;8.524;2022-11-15T17:46:27;5.03;;;4.10;;
12222;SDS011;6174;49.058;8.524;2022-11-15T17:48:56;6.67;;;4.60;;
12222;SDS011;6174;49.058;8.524;2022-11-15T17:51:23;5.77;;;3.83;;
12222;SDS011;6174;49.058;8.524;2022-11-15T17:53:50;6.80;;;4.10;;
12222;SDS011;6174;49.058;8.524;2022-11-15T17:56:17;7.20;;;4.43;;
12222;SDS011;6174;49.058;8.524;2022-11-15T17:58:48;4.50;;;4.10;;
12222;SDS011;6174;49.058;8.524;2022-11-15T18:01:16;5.43;;;4.47;;
12222;SDS011;6174;49.058;8.524;2022-11-15T18:03:44;4.63;;;4.17;;
12222;SDS011;6174;49.058;8.524;2022-11-15T18:06:13;5.43;;;4.20;;
12222;SDS011;6174;49.058;8.524;2022-11-15T18:08:42;5.00;;;4.10;;
12222;SDS011;6174;49.058;8.524;2022-11-15T18:11:11;5.17;;;4.47;;
12222;SDS011;6174;49.058;8.524;2022-11-15T18:13:40;4.50;;;4.10;;
12222;SDS011;6174;49.058;8.524;2022-11-15T18:16:09;5.00;;;3.97;;
12222;SDS011;6174;49.058;8.524;2022-11-15T18:18:37;5.40;;;4.70;;
12222;SDS011;6174;49.058;8.524;2022-11-15T18:21:08;9.00;;;5.70;;
12222;SDS011;6174;49.058;8.524;2022-11-15T18:23:39;5.57;;;4.80;;
12222;SDS011;6174;49.058;8.524;2022-11-15T18:26:08;5.50;;;4.40;;
12222;SDS011;6174;49.058;8.524;2022-11-15T18:28:38;5.40;;;3.97;;
12222;SDS011;6174;49.058;8.524;2022-11-15T18:31:11;4.90;;;3.87;;
12222;SDS011;6174;49.058;8.524;2022-11-15T18:33:39;4.10;;;3.70;;
12222;SDS011;6174;49.058;8.524;2022-11-15T18:36:08;3.60;;;3.30;;
12222;SDS011;6174;49.058;8.524;2022-11-15T18:38:38;4.00;;;3.43;;
12222;SDS011;6174;49.058;8.524;2022-11-15T18:41:14;4.30;;;3.20;;
12222;SDS011;6174;49.058;8.524;2022-11-15T18:43:44;4.90;;;3.70;;
12222;SDS011;6174;49.058;8.524;2022-11-15T18:46:14;4.10;;;3.50;;
12222;SDS011;6174;49.058;8.524;2022-11-15T18:48:42;4.80;;;4.30;;
12222;SDS011;6174;49.058;8.524;2022-11-15T18:51:11;5.80;;;4.80;;
12222;SDS011;6174;49.058;8.524;2022-11-15T18:53:40;7.00;;;4.33;;
12222;SDS011;6174;49.058;8.524;2022-11-15T18:56:09;4.90;;;4.03;;
12222;SDS011;6174;49.058;8.524;2022-11-15T18:58:37;5.90;;;4.93;;
12222;SDS011;6174;49.058;8.524;2022-11-15T19:01:08;5.67;;;3.70;;
12222;SDS011;6174;49.058;8.524;2022-11-15T19:03:37;4.60;;;3.80;;
12222;SDS011;6174;49.058;8.524;2022-11-15T19:06:06;4.90;;;4.40;;
12222;SDS011;6174;49.058;8.524;2022-11-15T19:08:34;6.10;;;5.50;;
12222;SDS011;6174;49.058;8.524;2022-11-15T19:11:04;7.10;;;6.20;;
12222;SDS011;6174;49.058;8.524;2022-11-15T19:13:32;7.63;;;6.47;;
12222;SDS011;6174;49.058;8.524;2022-11-15T19:16:01;8.50;;;7.13;;
12222;SDS011;6174;49.058;8.524;2022-11-15T19:18:29;9.50;;;8.50;;
12222;SDS011;6174;49.058;8.524;2022-11-15T19:21:00;10.03;;;8.60;;
12222;SDS011;6174;49.058;8.524;2022-11-15T19:23:28;10.80;;;9.67;;
12222;SDS011;6174;49.058;8.524;2022-11-15T19:25:58;11.40;;;9.50;;
12222;SDS011;6174;49.058;8.524;2022-11-15T19:28:27;15.50;;;12.40;;
12222;SDS011;6174;49.058;8.524;2022-11-15T19:31:01;13.40;;;10.57;;
12222;SDS011;6174;49.058;8.524;2022-11-15T19:33:28;8.37;;;7.57;;
12222;SDS011;6174;49.058;8.524;2022-11-15T19:35:58;5.57;;;5.07;;
12222;SDS011;6174;49.058;8.524;2022-11-15T19:38:25;5.63;;;5.13;;
12222;SDS011;6174;49.058;8.524;2022-11-15T19:40:56;5.50;;;5.00;;
12222;SDS011;6174;49.058;8.524;2022-11-15T19:43:23;5.30;;;4.80;;
12222;SDS011;6174;49.058;8.524;2022-11-15T19:45:52;5.70;;;4.80;;
12222;SDS011;6174;49.058;8.524;2022-11-15T19:48:19;4.60;;;4.20;;
12222;SDS011;6174;49.058;8.524;2022-11-15T19:50:46;5.87;;;5.37;;
12222;SDS011;6174;49.058;8.524;2022-11-15T19:53:13;8.53;;;7.63;;
12222;SDS011;6174;49.058;8.524;2022-11-15T19:55:40;6.83;;;6.13;;
12222;SDS011;6174;49.058;8.524;2022-11-15T19:58:07;5.70;;;5.20;;
12222;SDS011;6174;49.058;8.524;2022-11-15T20:00:34;5.90;;;5.40;;
12222;SDS011;6174;49.058;8.524;2022-11-15T20:03:02;6.30;;;5.70;;
12222;SDS011;6174;49.058;8.524;2022-11-15T20:05:29;5.20;;;4.70;;
12222;SDS011;6174;49.058;8.524;2022-11-15T20:07:56;5.53;;;4.80;;
12222;SDS011;6174;49.058;8.524;2022-11-15T20:10:23;5.57;;;4.83;;
12222;SDS011;6174;49.058;8.524;2022-11-15T20:12:49;6.57;;;5.97;;
12222;SDS011;6174;49.058;8.524;2022-11-15T20:15:16;7.07;;;5.17;;
12222;SDS011;6174;49.058;8.524;2022-11-15T20:17:43;4.60;;;4.10;;
12222;SDS011;6174;49.058;8.524;2022-11-15T20:20:11;22.27;;;16.17;;
12222;SDS011;6174;49.058;8.524;2022-11-15T20:22:38;8.03;;;7.03;;
12222;SDS011;6174;49.058;8.524;2022-11-15T20:25:05;4.30;;;3.90;;
12222;SDS011;6174;49.058;8.524;2022-11-15T20:27:32;4.97;;;3.33;;
12222;SDS011;6174;49.058;8.524;2022-11-15T20:29:59;3.40;;;3.20;;
12222;SDS011;6174;49.058;8.524;2022-11-15T20:32:25;4.27;;;3.87;;